createdAt,value
2019-02-26T00:02:26.078Z,76.40
2019-02-26T00:04:58.610Z,76.30
2019-02-26T00:07:30.441Z,76.30
2019-02-26T00:10:04.027Z,76.20
2019-02-26T00:12:35.494Z,76.10
2019-02-26T00:15:09.392Z,76.00
2019-02-26T00:17:43.015Z,75.90
2019-02-26T00:20:13.298Z,76.10
2019-02-26T00:22:45.780Z,76.00
2019-02-26T00:25:29.551Z,75.90
2019-02-26T00:27:59.881Z,76.10
2019-02-26T00:30:31.216Z,75.70
2019-02-26T00:33:02.795Z,75.70
2019-02-26T00:35:41.715Z,75.70
2019-02-26T00:38:13.410Z,75.80
2019-02-26T00:40:44.329Z,75.90
2019-02-26T00:43:14.853Z,75.90
2019-02-26T00:45:45.211Z,76.10
2019-02-26T00:48:15.545Z,76.30
2019-02-26T00:50:46.423Z,76.50
2019-02-26T00:53:19.139Z,76.70
2019-02-26T00:55:48.803Z,77.10
2019-02-26T00:58:19.393Z,77.30
2019-02-26T01:00:59.091Z,77.80
2019-02-26T01:03:29.411Z,77.70
2019-02-26T01:06:01.439Z,78.00
2019-02-26T01:08:31.759Z,78.00
2019-02-26T01:11:03.785Z,78.30
2019-02-26T01:13:33.995Z,78.20
2019-02-26T01:16:04.427Z,78.40
2019-02-26T01:18:34.817Z,78.50
2019-02-26T01:21:05.096Z,78.70
2019-02-26T01:23:35.355Z,79.00
2019-02-26T01:26:12.098Z,78.90
2019-02-26T01:28:44.134Z,79.60
2019-02-26T01:31:13.981Z,79.60
2019-02-26T01:33:46.751Z,79.90
2019-02-26T01:36:19.149Z,80.10
2019-02-26T01:38:51.049Z,80.40
2019-02-26T01:41:23.278Z,80.70
2019-02-26T01:43:53.484Z,80.80
2019-02-26T01:46:24.018Z,80.80
2019-02-26T01:48:55.215Z,81.10
2019-02-26T01:51:28.467Z,81.30
2019-02-26T01:53:58.453Z,81.60
2019-02-26T01:56:28.714Z,81.80
2019-02-26T01:59:02.116Z,82.00
2019-02-26T02:01:31.133Z,82.40
2019-02-26T02:04:01.425Z,82.60
2019-02-26T02:06:33.122Z,83.00
2019-02-26T02:09:03.807Z,83.30
2019-02-26T02:11:37.609Z,83.60
2019-02-26T02:14:08.225Z,83.60
2019-02-26T02:16:40.416Z,84.20
2019-02-26T02:19:15.524Z,84.20
2019-02-26T02:21:42.615Z,84.40
2019-02-26T02:24:15.064Z,84.60
2019-02-26T02:26:47.460Z,84.70
2019-02-26T02:29:17.315Z,84.60
2019-02-26T02:31:48.559Z,85.10
2019-02-26T02:34:18.863Z,85.20
2019-02-26T02:36:49.061Z,85.10
2019-02-26T02:39:20.870Z,85.00
2019-02-26T02:41:54.728Z,85.00
2019-02-26T02:44:25.504Z,84.90
2019-02-26T02:46:55.609Z,85.10
2019-02-26T02:49:25.925Z,84.90
2019-02-26T02:51:56.264Z,84.80
2019-02-26T02:54:26.618Z,84.70
2019-02-26T02:56:59.808Z,84.50
2019-02-26T02:59:30.995Z,84.50
2019-02-26T03:02:00.670Z,84.40
2019-02-26T03:04:34.409Z,84.40
2019-02-26T03:07:04.433Z,84.50
2019-02-26T03:09:37.745Z,84.60
2019-02-26T03:12:19.236Z,84.60
2019-02-26T03:14:49.846Z,84.50
2019-02-26T03:17:20.243Z,84.40
2019-02-26T03:19:50.736Z,84.10
2019-02-26T03:22:21.713Z,83.80
2019-02-26T03:24:54.388Z,83.80
2019-02-26T03:27:27.806Z,84.10
2019-02-26T03:29:58.294Z,84.20
2019-02-26T03:32:28.086Z,84.10
2019-02-26T03:35:02.162Z,84.90
2019-02-26T03:37:31.409Z,84.20
2019-02-26T03:40:03.707Z,84.20
2019-02-26T03:42:36.472Z,84.10
2019-02-26T03:45:09.352Z,84.10
2019-02-26T03:47:40.601Z,83.90
2019-02-26T03:50:13.763Z,83.80
2019-02-26T03:52:45.082Z,83.70
2019-02-26T03:55:18.281Z,83.80
2019-02-26T03:57:50.389Z,83.70
2019-02-26T04:00:20.316Z,83.70
2019-02-26T04:02:51.968Z,84.40
2019-02-26T04:05:22.453Z,83.60
2019-02-26T04:07:58.909Z,83.70
2019-02-26T04:10:28.222Z,83.60
2019-02-26T04:12:59.529Z,83.40
2019-02-26T04:15:35.131Z,83.20
2019-02-26T04:18:03.662Z,83.00
2019-02-26T04:20:33.988Z,83.20
2019-02-26T04:23:04.565Z,83.00
2019-02-26T04:25:52.089Z,82.70
2019-02-26T04:28:27.228Z,82.60
2019-02-26T04:30:59.447Z,82.40
2019-02-26T04:34:06.191Z,82.00
2019-02-26T04:37:04.645Z,81.70
2019-02-26T04:39:47.689Z,81.50
2019-02-26T04:42:40.953Z,82.30
2019-02-26T04:45:32.942Z,81.30
2019-02-26T04:48:09.146Z,81.30
2019-02-26T04:50:41.379Z,81.60
2019-02-26T04:53:11.340Z,81.70
2019-02-26T04:55:44.712Z,81.80
2019-02-26T04:58:17.036Z,81.70
2019-02-26T05:00:46.144Z,81.40
2019-02-26T05:03:20.086Z,81.40
2019-02-26T05:05:53.765Z,81.50
2019-02-26T05:08:21.515Z,81.30
2019-02-26T05:10:52.535Z,81.50
2019-02-26T05:13:25.248Z,81.70
2019-02-26T05:15:55.625Z,81.70
2019-02-26T05:18:26.537Z,81.50
2019-02-26T05:20:59.380Z,81.30
2019-02-26T05:23:33.019Z,81.30
2019-02-26T05:26:11.003Z,81.40
2019-02-26T05:28:49.718Z,81.50
2019-02-26T05:31:21.401Z,81.80
2019-02-26T05:33:55.394Z,81.30
2019-02-26T05:36:28.230Z,80.90
2019-02-26T05:39:02.293Z,80.90
2019-02-26T05:41:34.111Z,80.90
2019-02-26T05:44:08.347Z,80.50
2019-02-26T05:46:37.339Z,80.60
2019-02-26T05:49:10.565Z,80.40
2019-02-26T05:51:39.501Z,80.60
2019-02-26T05:54:12.200Z,80.70
2019-02-26T05:56:43.587Z,80.90
2019-02-26T05:59:15.494Z,81.20
2019-02-26T06:01:46.530Z,81.40
2019-02-26T06:04:19.594Z,81.80
2019-02-26T06:06:51.069Z,81.90
2019-02-26T06:09:23.512Z,81.90
2019-02-26T06:11:53.104Z,82.20
2019-02-26T06:14:25.463Z,82.30
2019-02-26T06:16:55.911Z,82.60
2019-02-26T06:19:44.933Z,82.80
2019-02-26T06:22:20.186Z,83.00
2019-02-26T06:24:47.339Z,83.20
2019-02-26T06:27:19.570Z,83.90
2019-02-26T06:29:52.832Z,83.60
2019-02-26T06:32:21.379Z,83.80
2019-02-26T06:34:51.693Z,84.30
2019-02-26T06:37:23.734Z,85.10
2019-02-26T06:39:55.604Z,84.40
2019-02-26T06:42:26.118Z,84.60
2019-02-26T06:44:56.525Z,84.70
2019-02-26T06:47:29.276Z,84.60
2019-02-26T06:49:58.804Z,84.80
2019-02-26T06:52:29.959Z,84.80
2019-02-26T06:55:02.974Z,84.70
2019-02-26T06:57:32.852Z,84.70
2019-02-26T07:00:04.248Z,84.80
2019-02-26T07:02:35.359Z,84.70
2019-02-26T07:05:08.707Z,84.70
2019-02-26T07:07:38.980Z,84.90
2019-02-26T07:10:13.826Z,84.60
2019-02-26T07:12:45.524Z,84.70
2019-02-26T07:15:16.315Z,84.70
2019-02-26T07:17:46.731Z,84.50
2019-02-26T07:20:17.055Z,84.50
2019-02-26T07:22:49.754Z,84.30
2019-02-26T07:25:20.347Z,84.10
2019-02-26T07:27:51.394Z,84.00
2019-02-26T07:30:22.647Z,84.50
2019-02-26T07:32:52.965Z,83.70
2019-02-26T07:35:23.255Z,83.80
2019-02-26T07:37:54.617Z,83.80
2019-02-26T07:40:27.785Z,83.60
2019-02-26T07:42:57.425Z,83.30
2019-02-26T07:45:29.643Z,83.60
2019-02-26T07:48:01.020Z,83.20
2019-02-26T07:50:36.961Z,83.20
2019-02-26T07:53:03.372Z,83.20
2019-02-26T07:55:35.393Z,82.60
2019-02-26T07:58:06.208Z,82.40
2019-02-26T08:00:39.802Z,82.70
2019-02-26T08:03:10.571Z,83.00
2019-02-26T08:05:40.934Z,83.40
2019-02-26T08:08:12.070Z,83.40
2019-02-26T08:10:45.357Z,83.00
2019-02-26T08:13:15.041Z,83.20
2019-02-26T08:15:47.117Z,83.80
2019-02-26T08:18:17.436Z,83.40
2019-02-26T08:20:47.798Z,83.90
2019-02-26T08:23:19.870Z,83.90
2019-02-26T08:26:06.828Z,84.20
2019-02-26T08:28:38.870Z,84.50
2019-02-26T08:31:11.202Z,84.20
2019-02-26T08:33:40.884Z,84.20
2019-02-26T08:36:13.583Z,84.00
2019-02-26T08:38:43.116Z,84.20
2019-02-26T08:41:13.456Z,84.40
2019-02-26T08:43:46.345Z,83.90
2019-02-26T08:46:17.161Z,83.80
2019-02-26T08:48:48.371Z,84.00
2019-02-26T08:51:21.483Z,83.50
2019-02-26T08:53:51.996Z,83.10
2019-02-26T08:56:23.942Z,83.00
2019-02-26T08:58:55.278Z,82.50
2019-02-26T09:01:25.592Z,82.60
2019-02-26T09:03:56.639Z,83.20
2019-02-26T09:06:27.741Z,83.30
2019-02-26T09:08:59.653Z,84.00
2019-02-26T09:11:33.777Z,83.80
2019-02-26T09:14:04.749Z,83.80
2019-02-26T09:16:35.455Z,84.30
2019-02-26T09:19:05.761Z,83.90
2019-02-26T09:21:36.890Z,83.90
2019-02-26T09:24:07.995Z,83.90
2019-02-26T09:26:38.291Z,83.90
2019-02-26T09:29:10.322Z,83.90
2019-02-26T09:31:40.544Z,83.60
2019-02-26T09:34:10.852Z,83.50
2019-02-26T09:36:41.131Z,82.90
2019-02-26T09:39:13.109Z,83.60
2019-02-26T09:41:45.448Z,84.30
2019-02-26T09:44:15.322Z,83.40
2019-02-26T09:46:45.522Z,82.40
2019-02-26T09:49:15.872Z,82.20
2019-02-26T09:51:46.172Z,81.80
2019-02-26T09:54:17.772Z,81.90
2019-02-26T09:56:48.516Z,82.40
2019-02-26T09:59:18.790Z,82.10
2019-02-26T10:01:49.090Z,82.30
2019-02-26T10:04:20.140Z,82.50
2019-02-26T10:06:51.345Z,82.70
2019-02-26T10:09:21.932Z,82.50
2019-02-26T10:11:52.437Z,82.40
2019-02-26T10:14:22.735Z,82.50
2019-02-26T10:16:55.054Z,81.90
2019-02-26T10:19:25.906Z,83.50
2019-02-26T10:21:57.296Z,81.90
2019-02-26T10:24:30.183Z,81.60
2019-02-26T10:27:03.025Z,82.10
2019-02-26T10:29:32.453Z,82.40
2019-02-26T10:32:03.651Z,81.60
2019-02-26T10:34:33.940Z,81.50
2019-02-26T10:37:04.415Z,80.80
2019-02-26T10:39:34.673Z,81.30
2019-02-26T10:42:04.973Z,81.00
2019-02-26T10:44:35.399Z,79.90
2019-02-26T10:47:07.753Z,79.50
2019-02-26T10:49:38.390Z,78.60
2019-02-26T10:52:10.918Z,79.40
2019-02-26T10:54:43.446Z,79.30
2019-02-26T10:57:14.499Z,79.30
2019-02-26T10:59:45.119Z,78.10
2019-02-26T11:02:17.783Z,76.90
2019-02-26T11:04:50.422Z,77.00
2019-02-26T11:07:20.674Z,77.30
2019-02-26T11:09:53.042Z,76.50
2019-02-26T11:12:25.176Z,76.80
2019-02-26T11:15:01.584Z,76.90
2019-02-26T11:17:31.727Z,76.20
2019-02-26T11:20:04.485Z,75.70
2019-02-26T11:22:35.241Z,76.30
2019-02-26T11:25:08.731Z,75.00
2019-02-26T11:27:40.895Z,75.20
2019-02-26T11:30:23.838Z,75.00
2019-02-26T11:32:58.721Z,75.30
2019-02-26T11:35:27.406Z,75.10
2019-02-26T11:37:58.284Z,74.50
2019-02-26T11:40:30.687Z,74.20
2019-02-26T11:43:10.906Z,74.10
2019-02-26T11:45:35.158Z,74.10
2019-02-26T11:48:06.628Z,73.40
2019-02-26T11:50:38.968Z,73.20
2019-02-26T11:53:10.015Z,74.00
2019-02-26T11:55:40.403Z,73.90
2019-02-26T11:58:13.061Z,73.00
2019-02-26T12:00:50.787Z,72.90
2019-02-26T12:03:24.973Z,72.90
2019-02-26T12:05:55.889Z,72.70
2019-02-26T12:08:25.889Z,73.00
2019-02-26T12:11:01.177Z,72.80
2019-02-26T12:13:28.306Z,72.90
2019-02-26T12:15:59.163Z,71.80
2019-02-26T12:18:29.503Z,71.50
2019-02-26T12:21:00.222Z,71.40
2019-02-26T12:23:31.854Z,70.60
2019-02-26T12:26:03.789Z,70.20
2019-02-26T12:28:35.903Z,70.60
2019-02-26T12:31:08.086Z,70.50
2019-02-26T12:33:37.855Z,70.00
2019-02-26T12:36:09.802Z,70.10
2019-02-26T12:38:40.023Z,69.60
2019-02-26T12:41:12.209Z,69.00
2019-02-26T12:43:43.975Z,69.40
2019-02-26T12:46:14.125Z,69.60
2019-02-26T12:48:46.951Z,69.00
2019-02-26T12:51:16.380Z,68.00
2019-02-26T12:53:50.079Z,68.30
2019-02-26T12:56:20.833Z,68.10
2019-02-26T12:58:54.570Z,68.20
2019-02-26T13:01:23.986Z,68.40
2019-02-26T13:03:55.100Z,68.00
2019-02-26T13:06:25.803Z,67.60
2019-02-26T13:08:56.118Z,68.50
2019-02-26T13:11:26.389Z,69.80
2019-02-26T13:13:57.911Z,69.20
2019-02-26T13:16:28.223Z,68.00
2019-02-26T13:19:03.769Z,67.60
2019-02-26T13:21:30.451Z,68.90
2019-02-26T13:24:11.444Z,67.80
2019-02-26T13:26:36.204Z,68.50
2019-02-26T13:29:04.554Z,68.30
2019-02-26T13:31:41.705Z,68.30
2019-02-26T13:34:13.687Z,68.20
2019-02-26T13:36:39.706Z,67.70
2019-02-26T13:39:10.629Z,67.60
2019-02-26T13:41:41.244Z,68.10
2019-02-26T13:44:11.667Z,67.30
2019-02-26T13:46:42.077Z,68.10
2019-02-26T13:49:12.387Z,68.60
2019-02-26T13:51:42.689Z,68.90
2019-02-26T13:54:13.125Z,68.60
2019-02-26T13:56:43.380Z,69.20
2019-02-26T13:59:13.705Z,69.30
2019-02-26T14:01:44.101Z,69.50
2019-02-26T14:04:14.426Z,70.60
2019-02-26T14:06:44.903Z,71.30
2019-02-26T14:09:15.210Z,70.40
2019-02-26T14:11:45.569Z,70.70
2019-02-26T14:14:15.886Z,70.60
2019-02-26T14:16:46.334Z,70.10
2019-02-26T14:19:17.649Z,70.30
2019-02-26T14:21:47.927Z,70.60
2019-02-26T14:24:18.278Z,69.80
2019-02-26T14:26:48.604Z,66.00
2019-02-26T14:29:18.865Z,65.70
2019-02-26T14:31:50.882Z,65.60
2019-02-26T14:34:21.142Z,66.20
2019-02-26T14:36:53.633Z,65.90
2019-02-26T14:39:26.146Z,64.20
2019-02-26T14:41:56.440Z,64.70
2019-02-26T14:44:26.755Z,65.00
2019-02-26T14:46:57.008Z,63.70
2019-02-26T14:49:27.331Z,63.60
2019-02-26T14:51:57.608Z,63.80
2019-02-26T14:54:27.833Z,64.00
2019-02-26T14:56:58.106Z,64.30
2019-02-26T14:59:28.953Z,63.70
2019-02-26T15:02:00.905Z,63.40
2019-02-26T15:04:32.278Z,62.90
2019-02-26T15:07:02.533Z,63.30
2019-02-26T15:09:33.146Z,63.20
2019-02-26T15:12:06.871Z,64.30
2019-02-26T15:14:42.969Z,63.40
2019-02-26T15:17:14.888Z,63.70
2019-02-26T15:19:49.583Z,64.20
2019-02-26T15:22:17.067Z,63.40
2019-02-26T15:24:47.473Z,64.60
2019-02-26T15:27:17.773Z,64.70
2019-02-26T15:29:50.792Z,65.20
2019-02-26T15:32:21.094Z,66.00
2019-02-26T15:34:51.498Z,66.30
2019-02-26T15:37:21.848Z,66.00
2019-02-26T15:39:52.221Z,66.70
2019-02-26T15:42:22.527Z,67.60
2019-02-26T15:44:52.720Z,68.50
2019-02-26T15:47:24.465Z,69.20
2019-02-26T15:49:54.753Z,69.90
2019-02-26T15:52:25.060Z,70.70
2019-02-26T15:54:57.658Z,71.20
2019-02-26T15:57:28.636Z,72.40
2019-02-26T16:00:00.431Z,73.20
2019-02-26T16:02:30.990Z,74.00
2019-02-26T16:05:01.270Z,75.40
2019-02-26T16:07:32.829Z,75.10
2019-02-26T16:10:03.180Z,75.80
2019-02-26T16:12:33.682Z,76.40
2019-02-26T16:15:08.178Z,77.50
2019-02-26T16:17:38.924Z,77.20
2019-02-26T16:20:14.839Z,77.90
2019-02-26T16:22:45.997Z,78.80
2019-02-26T16:25:16.615Z,79.00
2019-02-26T16:27:46.959Z,79.40
2019-02-26T16:30:19.902Z,79.90
2019-02-26T16:32:50.232Z,80.20
2019-02-26T16:35:24.712Z,80.70
2019-02-26T16:37:52.464Z,81.10
2019-02-26T16:40:22.764Z,81.70
2019-02-26T16:42:53.103Z,81.90
2019-02-26T16:45:27.348Z,82.20
2019-02-26T16:47:57.705Z,82.60
2019-02-26T16:50:32.405Z,82.80
2019-02-26T16:53:02.728Z,83.00
2019-02-26T16:55:33.317Z,83.40
2019-02-26T16:58:03.717Z,83.80
2019-02-26T17:00:34.020Z,84.20
2019-02-26T17:03:04.921Z,84.70
2019-02-26T17:05:35.198Z,84.80
2019-02-26T17:08:05.759Z,85.50
2019-02-26T17:10:35.959Z,86.00
2019-02-26T17:13:35.668Z,86.50
2019-02-26T17:16:07.036Z,86.80
2019-02-26T17:18:37.346Z,87.30
2019-02-26T17:21:07.625Z,87.60
2019-02-26T17:23:37.929Z,88.00
2019-02-26T17:26:08.231Z,88.60
2019-02-26T17:28:38.531Z,88.80
2019-02-26T17:31:08.930Z,89.40
2019-02-26T17:33:39.220Z,89.60
2019-02-26T17:36:09.509Z,89.90
2019-02-26T17:38:39.811Z,90.00
2019-02-26T17:41:12.247Z,90.00
2019-02-26T17:43:42.051Z,90.30
2019-02-26T17:46:12.321Z,90.40
2019-02-26T17:48:43.713Z,90.60
2019-02-26T17:51:14.251Z,90.80
2019-02-26T17:53:44.577Z,90.80
2019-02-26T17:56:14.764Z,90.90
2019-02-26T17:58:45.104Z,90.90
2019-02-26T18:01:15.398Z,91.00
2019-02-26T18:03:45.705Z,90.80
2019-02-26T18:06:15.969Z,91.10
2019-02-26T18:08:46.288Z,91.30
2019-02-26T18:11:16.553Z,91.30
2019-02-26T18:13:46.857Z,91.50
2019-02-26T18:16:17.134Z,91.60
2019-02-26T18:18:47.911Z,91.70
2019-02-26T18:21:18.167Z,91.70
2019-02-26T18:23:48.517Z,91.80
2019-02-26T18:26:18.812Z,91.90
2019-02-26T18:28:49.263Z,92.20
2019-02-26T18:31:26.290Z,92.10
2019-02-26T18:33:51.628Z,92.30
2019-02-26T18:36:21.967Z,92.30
2019-02-26T18:38:52.429Z,92.40
2019-02-26T18:41:22.672Z,92.50
2019-02-26T18:43:53.025Z,92.70
2019-02-26T18:46:23.516Z,92.80
2019-02-26T18:48:53.857Z,92.90
2019-02-26T18:51:24.131Z,93.00
2019-02-26T18:53:54.482Z,92.90
2019-02-26T18:56:24.770Z,93.00
2019-02-26T18:58:55.121Z,93.10
2019-02-26T19:01:25.444Z,93.20
2019-02-26T19:03:55.888Z,93.30
2019-02-26T19:06:27.005Z,93.40
2019-02-26T19:08:57.952Z,93.50
2019-02-26T19:11:28.274Z,93.60
2019-02-26T19:13:58.711Z,93.60
2019-02-26T19:16:29.040Z,93.80
2019-02-26T19:18:59.360Z,93.90
2019-02-26T19:21:29.679Z,93.90
2019-02-26T19:24:00.094Z,93.90
2019-02-26T19:26:48.451Z,94.00
2019-02-26T19:29:18.773Z,94.10
2019-02-26T19:31:50.135Z,94.10
2019-02-26T19:34:20.437Z,94.00
2019-02-26T19:36:50.787Z,93.90
2019-02-26T19:39:21.083Z,94.10
2019-02-26T19:41:51.362Z,94.20
2019-02-26T19:44:21.678Z,94.10
2019-02-26T19:46:51.907Z,94.20
2019-02-26T19:49:22.212Z,94.20
2019-02-26T19:51:52.572Z,94.40
2019-02-26T19:54:22.891Z,94.30
2019-02-26T19:56:54.698Z,94.40
2019-02-26T19:59:26.919Z,94.40
2019-02-26T20:01:59.046Z,94.50
2019-02-26T20:04:28.984Z,94.60
2019-02-26T20:07:00.418Z,94.50
2019-02-26T20:09:30.654Z,94.70
2019-02-26T20:12:01.034Z,94.70
2019-02-26T20:14:32.479Z,94.80
2019-02-26T20:17:11.603Z,94.80
2019-02-26T20:19:35.892Z,94.90
2019-02-26T20:22:06.239Z,95.30
2019-02-26T20:24:36.540Z,94.90
2019-02-26T20:27:06.865Z,95.10
2019-02-26T20:29:37.179Z,95.00
2019-02-26T20:32:07.444Z,95.10
2019-02-26T20:34:37.775Z,95.40
2019-02-26T20:37:09.590Z,95.40
2019-02-26T20:39:40.905Z,95.50
2019-02-26T20:42:11.811Z,95.50
2019-02-26T20:44:45.252Z,95.60
2019-02-26T20:47:14.049Z,95.60
2019-02-26T20:49:46.286Z,95.70
2019-02-26T20:52:16.272Z,95.80
2019-02-26T20:54:46.599Z,96.00
2019-02-26T20:57:17.856Z,96.10
2019-02-26T20:59:51.708Z,96.10
2019-02-26T21:02:20.060Z,96.10
2019-02-26T21:04:50.383Z,96.30
2019-02-26T21:07:21.789Z,96.30
2019-02-26T21:09:52.602Z,96.30
2019-02-26T21:12:23.918Z,96.40
2019-02-26T21:14:54.220Z,96.50
2019-02-26T21:17:26.552Z,96.50
2019-02-26T21:19:56.907Z,96.60
2019-02-26T21:22:27.147Z,96.70
2019-02-26T21:24:58.155Z,96.70
2019-02-26T21:27:28.756Z,96.80
2019-02-26T21:29:59.105Z,96.70
2019-02-26T21:32:29.377Z,97.00
2019-02-26T21:34:59.746Z,96.80
2019-02-26T21:37:32.674Z,96.70
2019-02-26T21:40:15.871Z,96.70
2019-02-26T21:42:46.570Z,96.90
2019-02-26T21:45:18.712Z,96.70
2019-02-26T21:47:49.426Z,96.80
2019-02-26T21:50:22.847Z,96.90
2019-02-26T21:52:59.762Z,96.80
2019-02-26T21:55:24.045Z,96.80
2019-02-26T21:58:04.620Z,96.90
2019-02-26T22:00:38.709Z,96.90
2019-02-26T22:03:06.755Z,97.00
2019-02-26T22:05:37.926Z,96.90
2019-02-26T22:08:08.753Z,97.10
2019-02-26T22:10:42.511Z,97.10
2019-02-26T22:13:11.601Z,97.10
2019-02-26T22:15:44.580Z,97.00
2019-02-26T22:18:14.920Z,97.30
2019-02-26T22:20:45.264Z,97.30
2019-02-26T22:23:15.848Z,97.60
2019-02-26T22:25:49.740Z,97.60
2019-02-26T22:28:23.103Z,97.60
2019-02-26T22:30:55.908Z,97.70
2019-02-26T22:33:25.771Z,97.60
2019-02-26T22:35:56.975Z,97.70
2019-02-26T22:38:28.779Z,97.80
2019-02-26T22:40:59.975Z,97.70
2019-02-26T22:43:31.393Z,97.80
2019-02-26T22:46:01.809Z,98.00
2019-02-26T22:48:32.104Z,98.00
2019-02-26T22:51:02.304Z,98.00
2019-02-26T22:53:36.372Z,98.00
2019-02-26T22:56:04.588Z,98.10
2019-02-26T22:58:35.843Z,98.10
2019-02-26T23:01:13.330Z,98.20
2019-02-26T23:03:45.918Z,98.20
2019-02-26T23:06:16.850Z,98.20
2019-02-26T23:08:47.597Z,98.20
2019-02-26T23:11:17.870Z,98.30
2019-02-26T23:13:49.020Z,98.30
2019-02-26T23:16:19.752Z,98.60
2019-02-26T23:18:50.454Z,98.80
2019-02-26T23:21:21.686Z,99.00
2019-02-26T23:23:54.716Z,99.00
2019-02-26T23:26:25.021Z,99.10
2019-02-26T23:28:55.518Z,99.00
2019-02-26T23:31:27.011Z,99.10
2019-02-26T23:33:58.959Z,99.20
2019-02-26T23:36:29.321Z,99.20
2019-02-26T23:38:59.629Z,99.40
2019-02-26T23:41:30.792Z,99.30
2019-02-26T23:44:02.901Z,99.40
2019-02-26T23:46:33.189Z,99.40
2019-02-26T23:49:03.525Z,99.60
2019-02-26T23:51:33.730Z,99.70
2019-02-26T23:54:04.740Z,99.60
2019-02-26T23:56:35.980Z,99.70
2019-02-26T23:59:06.328Z,99.70
